Time;durP1;ratioP1;P1;durP2;ratioP2;P2;SDS_P1;SDS_P2;PMS_P1;PMS_P2;Temp;Humidity;BMP_temperature;BMP_pressure;BME280_temperature;BME280_humidity;BME280_pressure;Samples;Min_cycle;Max_cycle;Signal;HPM_P1;HPM_P2
2021/03/08 00:02:21;;;;;;;32.13;14.17;;;;;;;1.43;90.54;101387.87;123434;1105;65041;-78
2021/03/08 00:04:48;;;;;;;31.37;13.67;;;;;;;1.45;90.81;101391.22;123400;1105;64927;-79
2021/03/08 00:07:14;;;;;;;28.37;12.30;;;;;;;1.46;90.76;101387.66;123414;1105;64943;-76
2021/03/08 00:09:41;;;;;;;24.33;10.23;;;;;;;1.46;90.79;101387.66;123520;1105;64908;-80
2021/03/08 00:12:08;;;;;;;29.27;11.63;;;;;;;1.50;90.98;101385.69;123571;1105;64971;-77
2021/03/08 00:14:35;;;;;;;17.63;9.03;;;;;;;1.53;91.17;101394.19;123713;1105;65586;-80
2021/03/08 00:17:03;;;;;;;23.67;11.10;;;;;;;1.56;90.55;101398.38;123666;1105;64921;-79
2021/03/08 00:19:32;;;;;;;24.17;13.33;;;;;;;1.55;90.76;101405.38;123604;1105;65406;-79
2021/03/08 00:21:58;;;;;;;17.40;5.87;;;;;;;1.54;89.30;101408.92;123306;1105;64949;-81
2021/03/08 00:24:25;;;;;;;18.43;6.73;;;;;;;1.54;89.84;101390.61;123458;1105;64985;-77
2021/03/08 00:26:51;;;;;;;9.03;4.40;;;;;;;1.53;89.41;101388.95;123328;1105;64920;-78
2021/03/08 00:29:17;;;;;;;12.00;4.60;;;;;;;1.51;89.05;101398.67;123525;1105;64960;-78
2021/03/08 00:31:43;;;;;;;14.75;6.10;;;;;;;1.51;88.59;101403.04;123416;1106;65058;-80
2021/03/08 00:34:10;;;;;;;12.23;5.43;;;;;;;1.47;88.26;101398.94;123575;1103;62437;-80
2021/03/08 00:36:36;;;;;;;10.10;4.87;;;;;;;1.44;88.03;101402.59;123596;1105;65298;-80
2021/03/08 00:39:03;;;;;;;9.03;3.50;;;;;;;1.40;87.94;101403.73;123688;1105;64969;-81
2021/03/08 00:41:29;;;;;;;6.53;3.07;;;;;;;1.37;88.20;101407.39;124091;1105;65030;-80
2021/03/08 00:43:55;;;;;;;15.00;5.27;;;;;;;1.36;87.76;101412.70;123702;1105;64946;-80
2021/03/08 00:46:21;;;;;;;9.47;4.27;;;;;;;1.35;87.62;101416.27;123707;1105;65708;-80
2021/03/08 00:48:48;;;;;;;16.43;4.10;;;;;;;1.33;87.70;101415.53;123524;1105;64927;-80
2021/03/08 00:51:14;;;;;;;16.90;3.80;;;;;;;1.31;87.53;101414.78;123779;1105;65005;-82
2021/03/08 00:53:40;;;;;;;7.73;2.67;;;;;;;1.29;87.65;101416.66;123665;1105;64946;-79
2021/03/08 00:56:06;;;;;;;4.60;1.27;;;;;;;1.21;88.01;101404.92;123531;1105;64972;-83
2021/03/08 00:58:32;;;;;;;7.22;3.37;;;;;;;1.16;87.60;101404.35;123749;1105;64950;-81
2021/03/08 01:00:58;;;;;;;8.00;2.33;;;;;;;1.14;87.76;101403.61;123689;1105;65008;-82
2021/03/08 01:03:25;;;;;;;7.33;1.97;;;;;;;1.10;87.84;101407.34;123629;1105;64173;-80
2021/03/08 01:05:51;;;;;;;6.60;2.50;;;;;;;1.09;88.03;101400.45;123742;1105;64985;-79
2021/03/08 01:08:18;;;;;;;9.10;2.70;;;;;;;1.09;87.67;101405.69;123877;1104;64921;-79
2021/03/08 01:10:44;;;;;;;6.43;2.27;;;;;;;1.06;87.96;101408.47;123530;1105;64997;-79
2021/03/08 01:13:10;;;;;;;5.10;1.80;;;;;;;1.04;87.52;101405.11;123532;1105;64946;-78
2021/03/08 01:15:37;;;;;;;11.33;1.67;;;;;;;1.04;87.50;101401.67;123572;1105;65902;-79
2021/03/08 01:18:03;;;;;;;10.47;2.07;;;;;;;1.01;87.85;101398.31;123594;1105;64962;-81
2021/03/08 01:20:30;;;;;;;13.62;1.98;;;;;;;1.01;87.72;101397.48;123743;1105;64467;-81
2021/03/08 01:22:56;;;;;;;6.87;2.17;;;;;;;1.01;87.84;101403.53;123529;1105;66129;-78
2021/03/08 01:25:29;;;;;;;6.60;1.65;;;;;;;1.01;87.55;101397.48;123490;1105;65065;-81
2021/03/08 01:27:56;;;;;;;9.10;2.17;;;;;;;1.00;87.55;101396.65;123748;1105;64910;-80
2021/03/08 01:30:29;;;;;;;9.75;1.45;;;;;;;1.01;87.60;101392.26;123903;1105;64913;-80
2021/03/08 01:32:56;;;;;;;10.03;1.53;;;;;;;1.01;87.30;101393.09;123727;1105;64998;-79
2021/03/08 01:35:23;;;;;;;8.55;1.30;;;;;;;1.00;87.62;101395.82;123651;1105;64972;-81
2021/03/08 01:37:50;;;;;;;5.20;1.60;;;;;;;1.00;87.37;101393.20;123516;1105;65074;-79
2021/03/08 01:40:18;;;;;;;5.30;1.10;;;;;;;0.98;87.32;101397.69;123511;1105;65004;-77
2021/03/08 01:42:45;;;;;;;11.03;1.80;;;;;;;0.99;86.94;101392.34;123656;1105;64914;-81
2021/03/08 01:45:16;;;;;;;12.97;2.60;;;;;;;0.98;87.32;101395.91;123898;1105;65020;-79
2021/03/08 01:47:45;;;;;;;8.77;1.83;;;;;;;0.98;87.08;101395.91;123594;1105;64860;-81
2021/03/08 01:50:38;;;;;;;7.60;1.83;;;;;;;0.98;87.64;101403.74;123593;1105;65469;-79
2021/03/08 01:53:09;;;;;;;11.57;1.80;;;;;;;0.98;87.43;101397.69;123811;1105;64811;-81
2021/03/08 01:55:37;;;;;;;6.70;1.50;;;;;;;0.94;87.53;101401.42;123666;1105;64914;-77
2021/03/08 01:58:03;;;;;;;9.37;1.77;;;;;;;0.92;87.36;101392.84;123939;1105;64806;-79
2021/03/08 02:00:30;;;;;;;8.37;1.83;;;;;;;0.91;87.47;101391.98;123496;1105;65072;-81
2021/03/08 02:02:58;;;;;;;10.43;2.00;;;;;;;0.92;87.59;101390.23;123668;1105;65052;-79
2021/03/08 02:05:32;;;;;;;9.20;2.10;;;;;;;0.90;87.82;101395.54;123593;1105;64914;-80
2021/03/08 02:08:00;;;;;;;9.93;2.10;;;;;;;0.91;87.59;101391.14;123594;1105;65049;-80
2021/03/08 02:10:30;;;;;;;4.03;1.30;;;;;;;0.88;87.72;101396.58;123562;1104;65074;-80
2021/03/08 02:13:21;;;;;;;4.87;1.00;;;;;;;0.87;87.93;101395.74;123663;1105;64923;-81
2021/03/08 02:15:52;;;;;;;5.90;1.00;;;;;;;0.86;87.58;101388.83;123330;1105;64994;-78
2021/03/08 02:18:36;;;;;;;4.47;1.40;;;;;;;0.85;87.74;101394.13;123653;1105;64905;-81
2021/03/08 02:21:40;;;;;;;3.50;1.73;;;;;;;0.83;87.96;101398.61;123342;1105;64934;-80
2021/03/08 02:24:44;;;;;;;9.13;2.20;;;;;;;0.83;87.61;101393.39;123564;1105;65049;-81
2021/03/08 02:27:33;;;;;;;9.73;1.83;;;;;;;0.84;86.98;101397.70;123561;1105;64941;-81
2021/03/08 02:30:27;;;;;;;8.23;1.60;;;;;;;0.84;87.02;101387.25;123944;1105;64921;-80
2021/03/08 02:32:55;;;;;;;6.83;1.50;;;;;;;0.83;87.31;101383.80;123460;1105;65001;-82
2021/03/08 02:35:28;;;;;;;8.33;1.50;;;;;;;0.83;87.30;101389.03;124204;1105;64914;-81
2021/03/08 02:38:02;;;;;;;14.27;2.90;;;;;;;0.81;87.34;101398.73;124605;1104;65004;-80
2021/03/08 02:40:48;;;;;;;8.23;1.80;;;;;;;0.80;86.90;101392.64;123590;1105;65452;-80
2021/03/08 02:43:23;;;;;;;3.80;1.10;;;;;;;0.74;87.55;101393.02;123506;1105;65020;-79
2021/03/08 02:45:52;;;;;;;11.13;2.90;;;;;;;0.72;87.23;101394.91;123895;1105;64904;-80
2021/03/08 02:48:23;;;;;;;9.80;1.90;;;;;;;0.70;86.81;101393.30;123726;1105;64937;-77
2021/03/08 02:50:53;;;;;;;16.23;2.50;;;;;;;0.63;87.01;101395.45;123802;1106;64978;-78
2021/03/08 02:53:23;;;;;;;8.37;2.27;;;;;;;0.60;86.88;101395.66;123559;1105;64937;-78
2021/03/08 02:55:54;;;;;;;6.25;2.05;;;;;;;0.54;87.00;101398.63;123792;1105;65004;-81
2021/03/08 02:58:23;;;;;;;6.67;2.20;;;;;;;0.46;86.93;101409.52;123456;1105;64969;-80
2021/03/08 03:01:05;;;;;;;8.23;2.00;;;;;;;0.36;87.24;101396.20;123630;1105;64991;-79
2021/03/08 03:03:37;;;;;;;7.63;1.60;;;;;;;0.27;86.92;101406.34;123787;1105;64950;-80
2021/03/08 03:06:04;;;;;;;8.87;2.20;;;;;;;0.18;87.32;101405.11;123742;1105;65713;-79
2021/03/08 03:08:32;;;;;;;17.17;2.80;;;;;;;0.09;87.65;101403.05;124177;1105;64937;-79
2021/03/08 03:11:00;;;;;;;5.70;1.77;;;;;;;-0.01;86.71;101408.78;123718;1105;64892;-80
2021/03/08 03:13:27;;;;;;;7.83;1.90;;;;;;;-0.09;87.20;101410.99;123442;1105;64904;-82
2021/03/08 03:15:55;;;;;;;12.07;2.13;;;;;;;-0.17;87.18;101413.23;123734;1105;65166;-80
2021/03/08 03:18:26;;;;;;;15.63;2.00;;;;;;;-0.24;87.05;101415.32;123586;1105;64947;-79
2021/03/08 03:20:54;;;;;;;5.93;1.97;;;;;;;-0.33;87.25;101417.63;123694;1105;65235;-79
2021/03/08 03:23:22;;;;;;;8.67;1.90;;;;;;;-0.41;87.82;101425.87;124245;1105;64870;-79
2021/03/08 03:25:50;;;;;;;8.03;2.00;;;;;;;-0.48;87.83;101420.16;123568;1105;64927;-78
2021/03/08 03:28:17;;;;;;;14.07;2.60;;;;;;;-0.53;88.17;101430.02;123936;1105;64996;-80
2021/03/08 03:30:46;;;;;;;7.43;2.17;;;;;;;-0.59;87.94;101422.53;123680;1105;65353;-80
2021/03/08 03:33:13;;;;;;;14.07;2.37;;;;;;;-0.65;89.20;101428.08;123657;1105;64933;-80
2021/03/08 03:35:41;;;;;;;13.97;2.60;;;;;;;-0.70;89.43;101428.34;123531;1105;64940;-79
2021/03/08 03:38:09;;;;;;;12.25;1.90;;;;;;;-0.75;88.31;101442.53;124054;1106;64931;-79
2021/03/08 03:40:36;;;;;;;9.93;2.27;;;;;;;-0.82;89.15;101442.02;124117;1105;65052;-79
2021/03/08 03:43:03;;;;;;;4.97;1.73;;;;;;;-0.88;89.78;101437.97;123454;1106;64927;-78
2021/03/08 03:45:29;;;;;;;9.20;2.03;;;;;;;-0.91;89.52;101440.76;123596;1105;65058;-81
2021/03/08 03:47:55;;;;;;;16.35;3.08;;;;;;;-0.96;88.84;101445.36;123685;1105;64898;-79
2021/03/08 03:50:24;;;;;;;11.90;4.83;;;;;;;-1.01;90.18;101441.34;123904;1105;65029;-80
2021/03/08 03:52:50;;;;;;;16.27;3.60;;;;;;;-1.05;90.24;101446.69;123685;1105;64917;-78
2021/03/08 03:55:19;;;;;;;12.87;3.07;;;;;;;-1.10;89.71;101450.48;123617;1105;64997;-78
2021/03/08 03:58:26;;;;;;;11.80;2.57;;;;;;;-1.16;89.90;101458.61;123673;1105;65005;-80
2021/03/08 04:01:04;;;;;;;12.80;2.60;;;;;;;-1.22;89.32;101459.76;123620;1105;65077;-75
2021/03/08 04:03:34;;;;;;;9.93;3.17;;;;;;;-1.28;89.75;101460.91;123742;1105;65666;-77
2021/03/08 04:06:05;;;;;;;7.83;2.57;;;;;;;-1.32;89.95;101463.75;123680;1105;64927;-77
2021/03/08 04:08:32;;;;;;;15.00;3.40;;;;;;;-1.37;89.93;101469.20;123435;1105;65118;-76
2021/03/08 04:11:02;;;;;;;13.70;3.60;;;;;;;-1.41;90.63;101470.28;123623;1105;64998;-79
2021/03/08 04:13:31;;;;;;;9.90;2.77;;;;;;;-1.46;90.06;101469.69;123424;1106;64937;-77
2021/03/08 04:15:58;;;;;;;17.20;2.93;;;;;;;-1.50;90.80;101470.76;124018;1104;64995;-75
2021/03/08 04:18:26;;;;;;;6.87;2.30;;;;;;;-1.52;90.86;101472.59;123429;1106;64908;-76
2021/03/08 04:20:54;;;;;;;13.70;3.53;;;;;;;-1.56;89.76;101471.90;123495;1105;64918;-76
2021/03/08 04:23:22;;;;;;;15.70;3.60;;;;;;;-1.57;90.85;101471.97;123408;1105;65042;-79
2021/03/08 04:25:49;;;;;;;8.27;2.17;;;;;;;-1.62;89.41;101472.20;123548;1105;64920;-75
2021/03/08 04:28:16;;;;;;;8.33;2.13;;;;;;;-1.65;90.64;101474.97;123555;1105;64937;-76
2021/03/08 04:30:44;;;;;;;10.70;2.90;;;;;;;-1.69;89.46;101479.48;123753;1105;63599;-82
2021/03/08 04:33:12;;;;;;;10.70;3.37;;;;;;;-1.71;90.19;101478.71;123934;1105;64998;-78
2021/03/08 04:35:41;;;;;;;12.30;3.25;;;;;;;-1.72;91.16;101482.25;123869;1105;65003;-78
2021/03/08 04:38:08;;;;;;;15.10;3.40;;;;;;;-1.75;90.39;101484.98;123769;1105;64989;-76
2021/03/08 04:40:34;;;;;;;13.47;3.53;;;;;;;-1.77;91.01;101481.61;123546;1105;65010;-78
2021/03/08 04:43:05;;;;;;;12.80;3.23;;;;;;;-1.80;90.56;101483.55;123521;1105;64981;-78
2021/03/08 04:45:32;;;;;;;13.50;4.40;;;;;;;-1.81;90.50;101487.88;123360;1105;65425;-79
2021/03/08 04:48:02;;;;;;;10.43;4.57;;;;;;;-1.81;90.52;101482.69;123417;1105;66132;-78
2021/03/08 04:50:29;;;;;;;12.95;4.20;;;;;;;-1.79;91.21;101480.84;123781;1105;64831;-78
2021/03/08 04:52:58;;;;;;;10.63;2.93;;;;;;;-1.76;91.47;101480.72;123444;1105;64918;-75
2021/03/08 04:55:28;;;;;;;13.80;3.57;;;;;;;-1.75;90.58;101479.78;123616;1104;64937;-76
2021/03/08 04:57:54;;;;;;;11.70;3.20;;;;;;;-1.75;91.82;101489.35;123415;1105;64943;-75
2021/03/08 05:00:22;;;;;;;12.73;3.73;;;;;;;-1.78;89.63;101492.12;123384;1105;65049;-78
2021/03/08 05:02:51;;;;;;;14.37;4.13;;;;;;;-1.83;90.48;101497.52;123420;1105;65422;-76
2021/03/08 05:05:21;;;;;;;7.63;3.10;;;;;;;-1.87;90.79;101498.58;123730;1105;64924;-79
2021/03/08 05:07:48;;;;;;;10.33;3.20;;;;;;;-1.94;89.63;101505.02;123771;1105;65003;-79
2021/03/08 05:10:18;;;;;;;7.73;3.00;;;;;;;-2.00;89.64;101513.11;123413;1105;64991;-80
2021/03/08 05:12:47;;;;;;;16.27;4.40;;;;;;;-2.03;90.32;101503.70;123386;1106;64997;-77
2021/03/08 05:15:14;;;;;;;13.60;5.00;;;;;;;-2.07;91.15;101508.20;123679;1105;64952;-77
2021/03/08 05:17:43;;;;;;;19.13;4.40;;;;;;;-2.10;90.66;101513.55;123429;1106;64963;-78
2021/03/08 05:20:12;;;;;;;13.53;2.87;;;;;;;-2.14;90.02;101512.02;123811;1105;64860;-80
2021/03/08 05:22:40;;;;;;;14.30;4.17;;;;;;;-2.18;91.06;101514.84;123337;1105;65244;-78
2021/03/08 05:25:08;;;;;;;16.03;4.57;;;;;;;-2.20;90.52;101521.86;123614;1105;64943;-78
2021/03/08 05:27:37;;;;;;;17.30;5.83;;;;;;;-2.19;91.38;101519.20;124202;1105;64939;-79
2021/03/08 05:30:06;;;;;;;9.80;3.40;;;;;;;-2.17;90.82;101517.34;124027;1106;64943;-78
2021/03/08 05:32:41;;;;;;;8.00;3.13;;;;;;;-2.19;89.93;101519.20;123561;1105;64885;-77
2021/03/08 05:35:10;;;;;;;6.60;2.87;;;;;;;-2.22;91.11;101519.33;123457;1105;64913;-76
2021/03/08 05:37:39;;;;;;;15.13;3.57;;;;;;;-2.24;90.81;101521.16;124267;1105;64856;-77
2021/03/08 05:40:20;;;;;;;10.00;3.97;;;;;;;-2.25;91.22;101519.48;123850;1105;64963;-79
2021/03/08 05:42:58;;;;;;;10.10;3.30;;;;;;;-2.28;90.01;101525.64;123615;1105;64962;-79
2021/03/08 05:45:30;;;;;;;9.20;3.30;;;;;;;-2.28;91.49;101528.24;124092;1105;64937;-77
2021/03/08 05:48:11;;;;;;;16.03;4.67;;;;;;;-2.28;90.17;101535.20;123805;1106;66014;-79
2021/03/08 05:51:00;;;;;;;14.10;4.23;;;;;;;-2.31;90.88;101535.36;124339;1105;64946;-80
2021/03/08 05:53:54;;;;;;;17.17;4.07;;;;;;;-2.33;90.22;101531.99;123537;1103;65426;-80
2021/03/08 05:56:36;;;;;;;9.33;3.00;;;;;;;-2.37;90.33;101535.64;124547;1105;64950;-79
2021/03/08 05:59:15;;;;;;;12.90;3.95;;;;;;;-2.39;90.34;101548.70;123835;1105;64905;-78
2021/03/08 06:02:06;;;;;;;12.83;4.23;;;;;;;-2.42;90.09;101551.45;124218;1105;64918;-80
2021/03/08 06:05:11;;;;;;;11.97;4.30;;;;;;;-2.44;91.05;101549.81;123870;1105;65052;-81
2021/03/08 06:08:15;;;;;;;10.77;4.27;;;;;;;-2.47;90.27;101556.83;123519;1105;64911;-76
2021/03/08 06:10:47;;;;;;;16.33;4.20;;;;;;;-2.44;90.34;101555.87;123821;1105;65380;-78
2021/03/08 06:13:21;;;;;;;15.67;4.23;;;;;;;-2.40;90.96;101556.55;123894;1105;64914;-77
2021/03/08 06:15:56;;;;;;;14.03;3.47;;;;;;;-2.39;90.39;101560.86;123432;1105;65008;-78
2021/03/08 06:18:33;;;;;;;13.70;3.83;;;;;;;-2.36;90.98;101568.49;123333;1105;66092;-80
2021/03/08 06:21:01;;;;;;;20.43;4.30;;;;;;;-2.33;91.67;101568.38;123920;1105;64921;-77
2021/03/08 06:23:28;;;;;;;19.03;4.37;;;;;;;-2.27;91.03;101568.09;123630;1105;64978;-79
2021/03/08 06:25:55;;;;;;;6.70;4.37;;;;;;;-2.24;90.65;101573.14;123792;1105;64911;-79
2021/03/08 06:28:22;;;;;;;7.25;3.50;;;;;;;-2.21;90.96;101565.22;124383;1105;65372;-81
2021/03/08 06:30:49;;;;;;;11.87;3.83;;;;;;;-2.16;91.41;101581.42;124283;1105;65167;-80
2021/03/08 06:33:17;;;;;;;15.73;5.53;;;;;;;-2.11;90.98;101576.84;124375;1105;65017;-76
2021/03/08 06:35:43;;;;;;;12.73;3.60;;;;;;;-2.08;90.55;101583.69;124409;1105;65285;-78
2021/03/08 06:38:11;;;;;;;12.23;4.07;;;;;;;-2.06;90.27;101577.49;123571;1105;64982;-78
2021/03/08 06:40:37;;;;;;;8.63;3.97;;;;;;;-2.00;89.72;101580.70;123562;1105;65046;-78
2021/03/08 06:43:03;;;;;;;10.35;4.70;;;;;;;-1.94;90.66;101583.02;123385;1105;64960;-78
2021/03/08 06:45:30;;;;;;;12.82;4.47;;;;;;;-1.85;90.07;101591.24;123397;1105;65084;-78
2021/03/08 06:47:56;;;;;;;14.10;4.45;;;;;;;-1.83;90.22;101596.34;123548;1105;65267;-78
2021/03/08 06:50:22;;;;;;;11.30;2.97;;;;;;;-1.84;89.74;101594.68;123368;1105;64969;-77
2021/03/08 06:52:49;;;;;;;11.53;4.00;;;;;;;-1.82;89.74;101595.45;123447;1106;64937;-78
2021/03/08 06:55:21;;;;;;;8.80;3.80;;;;;;;-1.79;90.45;101603.09;123384;1106;64806;-78
2021/03/08 06:57:48;;;;;;;13.70;3.00;;;;;;;-1.75;89.99;101602.03;123788;1105;65087;-76
2021/03/08 07:00:15;;;;;;;9.60;3.05;;;;;;;-1.70;89.38;101605.27;123479;1106;64998;-78
2021/03/08 07:02:49;;;;;;;11.00;3.40;;;;;;;-1.63;89.09;101600.62;123887;1105;64943;-76
2021/03/08 07:05:21;;;;;;;16.10;3.10;;;;;;;-1.53;90.18;101601.00;125725;1105;64155;-78
2021/03/08 07:08:01;;;;;;;10.27;3.43;;;;;;;-1.44;90.46;101603.17;123368;1105;64863;-81
2021/03/08 07:10:30;;;;;;;10.07;3.30;;;;;;;-1.37;88.69;101617.55;123726;1105;64917;-81
2021/03/08 07:12:57;;;;;;;8.37;2.90;;;;;;;-1.29;90.17;101625.83;123893;1105;65539;-81
2021/03/08 07:15:26;;;;;;;8.87;3.17;;;;;;;-1.18;88.60;101624.47;123694;1105;65000;-83
2021/03/08 07:17:53;;;;;;;13.25;3.50;;;;;;;-1.13;88.67;101625.91;123929;1106;64910;-80
2021/03/08 07:20:20;;;;;;;11.03;2.93;;;;;;;-1.07;88.71;101627.38;123661;1106;64869;-80
2021/03/08 07:22:47;;;;;;;7.03;2.63;;;;;;;-1.00;87.83;101628.73;123984;1105;64863;-81
2021/03/08 07:25:31;;;;;;;8.37;3.27;;;;;;;-0.90;88.99;101635.17;124030;1105;64969;-80
2021/03/08 07:28:02;;;;;;;12.63;3.67;;;;;;;-0.83;88.05;101636.56;123759;1105;64962;-79
2021/03/08 07:30:33;;;;;;;14.07;3.00;;;;;;;-0.74;88.55;101634.41;123558;1105;65027;-79
2021/03/08 07:33:05;;;;;;;8.33;2.53;;;;;;;-0.66;87.53;101630.48;123828;1105;65127;-80
2021/03/08 07:35:48;;;;;;;7.23;2.17;;;;;;;-0.57;88.25;101634.38;123839;1106;64813;-80
2021/03/08 07:38:35;;;;;;;10.43;2.33;;;;;;;-0.48;86.85;101639.09;123699;1106;64899;-79
2021/03/08 07:41:12;;;;;;;11.63;3.93;;;;;;;-0.42;86.74;101643.99;123614;1105;64805;-80
2021/03/08 07:43:43;;;;;;;5.70;2.73;;;;;;;-0.32;87.47;101648.71;123488;1106;64975;-80
2021/03/08 07:46:30;;;;;;;11.40;2.90;;;;;;;-0.24;87.66;101652.59;123568;1105;64953;-79
2021/03/08 07:48:59;;;;;;;9.67;2.43;;;;;;;-0.18;86.72;101646.22;125876;1105;64920;-78
2021/03/08 07:51:26;;;;;;;7.40;2.30;;;;;;;-0.16;85.77;101649.59;123608;1105;64988;-79
2021/03/08 07:54:03;;;;;;;4.53;2.23;;;;;;;-0.12;86.75;101645.89;123436;1105;64910;-78
2021/03/08 07:56:30;;;;;;;6.37;2.07;;;;;;;-0.09;85.76;101653.55;123555;1105;64966;-81
2021/03/08 07:58:57;;;;;;;13.50;2.40;;;;;;;-0.03;85.63;101655.83;123626;1105;65003;-78
2021/03/08 08:01:26;;;;;;;5.70;1.57;;;;;;;0.07;84.25;101655.34;123646;1105;65045;-81
2021/03/08 08:03:56;;;;;;;4.40;1.77;;;;;;;0.14;83.36;101656.69;124153;1106;64988;-79
2021/03/08 08:06:26;;;;;;;4.40;1.87;;;;;;;0.19;84.49;101654.66;123462;1106;65030;-79
2021/03/08 08:08:54;;;;;;;8.87;2.07;;;;;;;0.25;83.37;101650.87;123715;1105;64937;-79
2021/03/08 08:11:26;;;;;;;6.10;1.63;;;;;;;0.29;83.17;101655.84;124056;1105;64950;-80
2021/03/08 08:14:00;;;;;;;6.43;2.10;;;;;;;0.36;83.44;101658.94;123694;1105;64962;-81
2021/03/08 08:16:29;;;;;;;6.97;2.23;;;;;;;0.39;82.06;101657.02;123846;1105;64914;-81
2021/03/08 08:19:08;;;;;;;7.23;2.03;;;;;;;0.46;82.43;101651.45;124116;1105;64798;-79
2021/03/08 08:21:42;;;;;;;10.30;2.43;;;;;;;0.57;83.58;101649.94;124262;1105;64863;-79
2021/03/08 08:24:19;;;;;;;9.98;2.80;;;;;;;0.71;82.84;101651.75;123884;1105;64937;-79
2021/03/08 08:26:52;;;;;;;5.27;1.57;;;;;;;0.85;82.75;101658.81;124018;1105;64933;-81
2021/03/08 08:29:26;;;;;;;7.30;2.00;;;;;;;0.96;82.03;101663.41;124206;1105;65161;-80
2021/03/08 08:32:04;;;;;;;5.67;2.15;;;;;;;1.08;81.98;101660.06;123711;1106;65004;-80
2021/03/08 08:34:40;;;;;;;5.10;1.27;;;;;;;1.16;80.23;101665.69;124301;1105;64162;-80
2021/03/08 08:37:18;;;;;;;3.85;1.60;;;;;;;1.25;80.68;101666.08;124163;1105;65013;-80
2021/03/08 08:40:04;;;;;;;6.60;2.10;;;;;;;1.32;80.57;101675.23;123682;1105;64921;-79
2021/03/08 08:42:32;;;;;;;7.27;2.50;;;;;;;1.42;80.41;101673.75;123959;1105;64873;-80
2021/03/08 08:45:08;;;;;;;6.00;1.83;;;;;;;1.47;79.67;101669.11;123903;1105;65129;-78
2021/03/08 08:47:36;;;;;;;7.73;2.40;;;;;;;1.52;79.40;101668.83;123562;1105;64940;-79
2021/03/08 08:50:05;;;;;;;6.73;2.00;;;;;;;1.60;80.01;101664.81;123732;1105;64970;-80
2021/03/08 08:52:53;;;;;;;3.80;1.53;;;;;;;1.68;79.06;101661.75;123799;1106;64908;-79
2021/03/08 08:55:39;;;;;;;3.60;1.80;;;;;;;1.78;78.64;101662.01;123334;1105;64940;-76
2021/03/08 08:58:27;;;;;;;5.83;1.97;;;;;;;1.87;77.58;101663.22;123363;1105;64992;-80
2021/03/08 09:01:14;;;;;;;5.77;1.83;;;;;;;1.99;78.28;101658.06;123437;1105;65077;-77
2021/03/08 09:04:10;;;;;;;12.00;1.87;;;;;;;2.10;77.07;101664.41;123683;1105;64930;-81
2021/03/08 09:06:56;;;;;;;4.33;1.00;;;;;;;2.20;75.84;101655.88;124206;1105;64939;-79
2021/03/08 09:09:30;;;;;;;2.37;0.90;;;;;;;2.23;73.94;101649.59;123949;1105;64937;-78
2021/03/08 09:11:58;;;;;;;3.50;1.03;;;;;;;2.33;74.56;101648.08;123760;1106;64987;-77
2021/03/08 09:14:30;;;;;;;6.73;1.97;;;;;;;2.36;72.91;101647.91;124396;1105;65072;-79
2021/03/08 09:17:30;;;;;;;5.23;1.47;;;;;;;2.45;72.84;101647.30;123426;1105;65007;-80
2021/03/08 09:19:56;;;;;;;3.97;1.37;;;;;;;2.55;73.85;101650.18;123535;1105;64937;-81
2021/03/08 09:22:22;;;;;;;3.25;1.20;;;;;;;2.65;72.28;101650.41;123488;1105;64933;-77
2021/03/08 09:24:50;;;;;;;4.37;1.17;;;;;;;2.73;73.16;101655.98;123559;1105;64937;-79
2021/03/08 09:27:21;;;;;;;3.57;1.40;;;;;;;2.81;71.88;101653.71;124700;1104;64806;-80
2021/03/08 09:29:49;;;;;;;3.37;1.43;;;;;;;2.88;72.51;101655.93;123486;1105;65070;-77
2021/03/08 09:32:17;;;;;;;2.93;1.17;;;;;;;2.98;71.74;101657.00;124562;1106;64902;-78
2021/03/08 09:34:44;;;;;;;4.30;1.30;;;;;;;3.05;72.06;101661.72;125141;1105;64911;-77
2021/03/08 09:37:12;;;;;;;4.20;1.73;;;;;;;3.19;71.99;101657.36;123672;1105;64859;-79
2021/03/08 09:39:53;;;;;;;4.57;1.40;;;;;;;3.29;70.77;101660.18;123868;1105;64920;-78
2021/03/08 09:42:20;;;;;;;3.17;1.30;;;;;;;3.37;71.75;101668.38;123842;1105;64873;-78
2021/03/08 09:44:48;;;;;;;2.60;0.90;;;;;;;3.42;67.91;101671.51;124603;1105;64946;-77
2021/03/08 09:47:16;;;;;;;4.37;1.60;;;;;;;3.45;68.39;101671.31;124032;1105;64963;-80
2021/03/08 09:49:49;;;;;;;3.90;0.97;;;;;;;3.46;67.10;101679.09;124040;1105;64947;-79
2021/03/08 09:52:45;;;;;;;3.23;1.53;;;;;;;3.47;65.09;101672.05;123857;1105;64951;-77
2021/03/08 09:55:16;;;;;;;6.60;1.30;;;;;;;3.52;66.98;101667.31;123674;1105;65000;-79
2021/03/08 09:57:44;;;;;;;4.77;1.50;;;;;;;3.57;66.14;101661.75;123707;1105;64869;-77
2021/03/08 10:00:14;;;;;;;3.27;0.80;;;;;;;3.61;64.55;101661.46;125027;1105;64911;-78
2021/03/08 10:02:46;;;;;;;4.70;1.27;;;;;;;3.66;61.27;101669.84;124265;1103;64939;-80
2021/03/08 10:05:22;;;;;;;7.20;1.27;;;;;;;3.65;61.11;101673.39;123606;1105;64901;-80
2021/03/08 10:07:55;;;;;;;2.63;1.30;;;;;;;3.70;62.81;101674.86;123494;1105;65093;-77
2021/03/08 10:10:25;;;;;;;5.33;1.20;;;;;;;3.74;62.76;101668.45;123530;1102;64834;-79
2021/03/08 10:13:00;;;;;;;3.10;0.87;;;;;;;3.79;62.45;101679.49;123840;1105;65254;-80
2021/03/08 10:15:27;;;;;;;3.00;1.20;;;;;;;3.81;60.03;101682.85;123496;1105;64931;-82
2021/03/08 10:18:00;;;;;;;4.20;1.03;;;;;;;3.90;61.86;101683.99;123716;1105;64921;-80
2021/03/08 10:20:28;;;;;;;2.00;0.77;;;;;;;3.96;59.09;101683.57;123614;1105;65035;-81
2021/03/08 10:22:55;;;;;;;2.75;1.20;;;;;;;4.02;58.59;101683.97;123890;1103;64809;-78
2021/03/08 10:25:30;;;;;;;3.27;1.00;;;;;;;4.05;59.10;101677.66;124122;1104;64934;-79
2021/03/08 10:28:01;;;;;;;3.07;0.53;;;;;;;4.09;56.33;101676.50;124383;1103;64952;-78
2021/03/08 10:30:32;;;;;;;2.85;1.10;;;;;;;4.17;58.71;101673.34;123901;1105;64998;-81
2021/03/08 10:33:11;;;;;;;1.90;0.80;;;;;;;4.27;57.40;101674.34;125047;1105;63594;-80
2021/03/08 10:35:46;;;;;;;3.07;1.00;;;;;;;4.31;57.66;101667.91;123782;1106;64816;-80
2021/03/08 10:38:33;;;;;;;2.53;1.03;;;;;;;4.42;58.67;101667.14;123994;1106;64992;-79
2021/03/08 10:41:03;;;;;;;1.47;0.70;;;;;;;4.53;53.64;101666.36;124459;1105;64940;-78
2021/03/08 10:43:30;;;;;;;2.23;1.07;;;;;;;4.57;52.93;101666.05;123931;1102;64857;-78
2021/03/08 10:46:00;;;;;;;4.63;0.97;;;;;;;4.64;53.66;101671.69;123595;1106;64860;-79
2021/03/08 10:48:27;;;;;;;2.33;0.60;;;;;;;4.69;52.66;101669.55;124091;1105;64947;-77
2021/03/08 10:50:59;;;;;;;2.97;1.10;;;;;;;4.72;51.45;101666.72;123720;1103;64994;-82
2021/03/08 10:53:57;;;;;;;3.50;0.83;;;;;;;4.80;52.74;101677.51;124110;1106;65026;-79
2021/03/08 10:56:25;;;;;;;2.30;0.77;;;;;;;4.92;52.44;101669.66;124160;1105;65400;-80
2021/03/08 10:58:53;;;;;;;1.87;0.57;;;;;;;4.99;50.74;101661.17;123871;1105;64920;-78
2021/03/08 11:01:20;;;;;;;3.00;1.07;;;;;;;5.04;51.48;101663.49;123616;1104;64861;-81
2021/03/08 11:03:53;;;;;;;2.30;0.80;;;;;;;5.17;53.72;101668.66;123808;1105;65129;-81
2021/03/08 11:06:21;;;;;;;3.20;0.70;;;;;;;5.23;48.96;101674.30;123783;1105;64934;-80
2021/03/08 11:08:59;;;;;;;1.30;0.50;;;;;;;5.34;51.14;101670.02;123843;1105;65052;-77
2021/03/08 11:11:32;;;;;;;3.60;0.93;;;;;;;5.48;51.14;101662.75;123608;1105;65029;-77
2021/03/08 11:14:01;;;;;;;4.80;1.20;;;;;;;5.51;50.34;101673.02;123755;1105;65012;-78
2021/03/08 11:16:30;;;;;;;5.83;0.93;;;;;;;5.56;49.44;101670.03;123553;1105;64886;-80
2021/03/08 11:19:23;;;;;;;2.85;0.85;;;;;;;5.67;50.35;101658.67;123707;1105;65930;-77
2021/03/08 11:22:08;;;;;;;1.63;0.83;;;;;;;5.66;47.18;101660.47;123502;1106;64959;-78
2021/03/08 11:24:50;;;;;;;4.27;0.80;;;;;;;5.70;44.68;101656.64;124345;1096;121883;-77
2021/03/08 11:27:24;;;;;;;1.33;0.70;;;;;;;5.71;46.02;101668.01;123369;1105;65242;-76
2021/03/08 11:30:05;;;;;;;2.80;0.80;;;;;;;5.74;45.04;101662.52;123552;1105;64963;-78
2021/03/08 11:32:34;;;;;;;2.20;0.70;;;;;;;5.83;46.73;101661.79;123417;1106;64918;-79
2021/03/08 11:35:28;;;;;;;1.43;0.73;;;;;;;5.91;45.37;101658.57;123729;1102;64917;-79
2021/03/08 11:38:07;;;;;;;2.57;0.97;;;;;;;5.96;47.59;101661.70;123926;1105;64898;-79
2021/03/08 11:40:35;;;;;;;2.50;0.80;;;;;;;6.11;47.78;101657.84;123904;1105;64908;-78
2021/03/08 11:43:02;;;;;;;2.13;0.90;;;;;;;6.24;44.68;101648.96;123855;1106;64988;-79